Ishurdi, Bangladesh
Current Conditions -  °F | °C
As of 10:50 AM on Saturday 20 Dec 2014 (Local Time) from VGHS Reporting Station
Haze Haze  
Wind Chill: 72°   Ceiling: Unl
Heat Index: 72°   Visibility: 1.2mi
Dew Point: 55°   Wind: 7mph
Humidity: 57%   Direction: 330°NNW
Pressure: 30"   Gusts: NA
Location:  24.14°N, 89.07°E
Report Text: VGHS 200450Z 33006KT 2000 HZ NSC 22/13 Q1016 TEMPO S/VIS 3000M
Loading
Personal Weather Stations






























Interactive Weather Map New forecast layout! Learn more

10-Day Weather Forecast

Advertisements
Track Severe Weather on mobile